Time;durP1;ratioP1;P1;durP2;ratioP2;P2;SDS_P1;SDS_P2;PMS_P1;PMS_P2;Temp;Humidity;BMP_temperature;BMP_pressure;BME280_temperature;BME280_humidity;BME280_pressure;Samples;Min_cycle;Max_cycle;Signal;HPM_P1;HPM_P2
2023/05/10 00:01:02;;;;;;;6.30;4.28;;;;;;;9.39;86.73;94162.38;4984054;28;20026;-80
2023/05/10 00:03:28;;;;;;;5.43;4.00;;;;;;;9.42;86.49;94167.06;4984190;28;20049;-77
2023/05/10 00:05:53;;;;;;;7.15;4.18;;;;;;;9.38;86.19;94171.41;4983720;28;20054;-78
2023/05/10 00:08:19;;;;;;;6.57;4.18;;;;;;;9.32;85.47;94162.78;4983817;28;20104;-78
2023/05/10 00:10:44;;;;;;;6.78;3.95;;;;;;;9.28;85.75;94153.81;4983631;28;20026;-78
2023/05/10 00:13:10;;;;;;;8.00;4.53;;;;;;;9.31;85.46;94150.53;4983687;28;20089;-78
2023/05/10 00:15:35;;;;;;;6.43;4.53;;;;;;;9.27;85.13;94154.88;4983895;28;20034;-78
2023/05/10 00:18:01;;;;;;;5.70;4.03;;;;;;;9.26;84.97;94157.84;4983684;28;20035;-78
2023/05/10 00:20:26;;;;;;;6.13;3.90;;;;;;;9.24;85.28;94150.97;4958477;28;20027;-77
2023/05/10 00:22:52;;;;;;;5.63;4.45;;;;;;;9.25;84.87;94146.41;4983517;28;20228;-77
2023/05/10 00:25:17;;;;;;;6.03;4.32;;;;;;;9.23;84.96;94152.03;4983769;28;20031;-77
2023/05/10 00:27:43;;;;;;;7.15;4.72;;;;;;;9.24;84.85;94147.50;4983573;28;20023;-79
2023/05/10 00:30:08;;;;;;;5.95;4.43;;;;;;;9.23;84.40;94149.38;4983312;28;20027;-79
2023/05/10 00:32:34;;;;;;;7.55;4.05;;;;;;;9.20;84.36;94149.97;4983549;28;20023;-78
2023/05/10 00:34:59;;;;;;;7.60;4.15;;;;;;;9.13;84.47;94151.44;4983447;28;20019;-77
2023/05/10 00:37:25;;;;;;;6.72;4.47;;;;;;;9.13;84.48;94148.78;4983590;28;20019;-77
2023/05/10 00:39:50;;;;;;;8.02;4.10;;;;;;;9.13;84.60;94135.50;4983436;28;20011;-77
2023/05/10 00:42:16;;;;;;;5.90;4.13;;;;;;;9.14;84.56;94145.03;4983516;28;20027;-77
2023/05/10 00:44:41;;;;;;;6.00;4.22;;;;;;;9.11;84.14;94127.81;4983243;28;20026;-77
2023/05/10 00:47:07;;;;;;;5.97;4.50;;;;;;;9.12;84.13;94133.91;4983258;28;20046;-77
2023/05/10 00:49:34;;;;;;;7.72;5.25;;;;;;;9.10;83.87;94133.41;4983068;28;20027;-77
2023/05/10 00:51:59;;;;;;;7.47;4.57;;;;;;;9.10;84.01;94133.41;4983060;28;20058;-77
2023/05/10 00:54:25;;;;;;;6.60;4.82;;;;;;;9.06;83.89;94133.25;4983145;28;20062;-77
2023/05/10 00:56:51;;;;;;;6.45;4.95;;;;;;;8.97;84.23;94130.47;4983326;28;20105;-77
2023/05/10 00:59:17;;;;;;;6.53;4.93;;;;;;;8.98;84.12;94129.41;4983282;28;20019;-77
2023/05/10 01:01:45;;;;;;;6.00;4.22;;;;;;;9.02;83.71;94118.97;4984274;28;20057;-78
2023/05/10 01:04:12;;;;;;;9.55;4.85;;;;;;;9.01;83.98;94120.03;4986680;28;20109;-77
2023/05/10 01:06:39;;;;;;;7.20;5.25;;;;;;;8.95;83.76;94121.22;4986495;28;20026;-77
2023/05/10 01:09:06;;;;;;;6.28;4.95;;;;;;;8.92;83.79;94122.59;4986197;28;20042;-77
2023/05/10 01:11:32;;;;;;;6.40;4.47;;;;;;;8.89;83.71;94122.41;4986595;28;20098;-77
2023/05/10 01:13:58;;;;;;;8.45;4.65;;;;;;;8.89;83.93;94125.84;4986655;28;20089;-77
2023/05/10 01:16:25;;;;;;;10.73;5.15;;;;;;;8.84;83.91;94121.41;4986509;28;20329;-77
2023/05/10 01:18:51;;;;;;;8.13;4.30;;;;;;;8.86;83.77;94121.13;4986224;28;20019;-77
2023/05/10 01:21:31;;;;;;;6.28;4.50;;;;;;;8.86;83.50;94113.16;4986388;28;20022;-77
2023/05/10 01:24:34;;;;;;;8.20;4.68;;;;;;;8.85;83.71;94116.88;4986282;28;20026;-77
2023/05/10 01:27:27;;;;;;;9.30;5.25;;;;;;;8.84;83.86;94117.97;4986256;28;20070;-77
2023/05/10 01:29:52;;;;;;;7.25;4.30;;;;;;;8.83;83.90;94103.09;4985960;28;20031;-77
2023/05/10 01:32:29;;;;;;;8.18;4.80;;;;;;;8.79;83.84;94105.56;4986198;28;20039;-77
2023/05/10 01:35:03;;;;;;;12.02;5.10;;;;;;;8.79;83.70;94104.78;4986335;28;20229;-77
2023/05/10 01:37:40;;;;;;;7.07;4.13;;;;;;;8.74;83.68;94096.91;4985832;28;20062;-78
2023/05/10 01:40:26;;;;;;;6.63;4.68;;;;;;;8.73;83.72;94095.31;4985993;28;20304;-78
2023/05/10 01:42:56;;;;;;;5.55;4.20;;;;;;;8.72;83.37;94091.09;4985802;28;20348;-79
2023/05/10 01:45:31;;;;;;;7.32;4.25;;;;;;;8.69;83.50;94089.84;4985952;28;20022;-78
2023/05/10 01:48:09;;;;;;;9.55;3.97;;;;;;;8.62;84.02;94087.53;4986077;28;20217;-78
2023/05/10 01:50:37;;;;;;;5.80;4.13;;;;;;;8.62;83.78;94082.22;4985776;28;20098;-77
2023/05/10 01:53:07;;;;;;;5.43;4.15;;;;;;;8.59;83.73;94084.72;4985385;28;20047;-78
2023/05/10 01:55:37;;;;;;;9.80;4.43;;;;;;;8.57;83.91;94085.00;4985520;28;20065;-78
2023/05/10 01:58:09;;;;;;;5.07;3.55;;;;;;;8.57;83.98;94087.66;4985681;28;20130;-78
2023/05/10 02:00:35;;;;;;;7.70;3.92;;;;;;;8.56;83.46;94083.41;4985731;28;20019;-79
2023/05/10 02:03:06;;;;;;;7.35;4.15;;;;;;;8.51;83.62;94080.06;4985722;28;20030;-79
2023/05/10 02:05:35;;;;;;;4.38;3.20;;;;;;;8.48;83.14;94085.97;4985656;28;20337;-79
2023/05/10 02:08:02;;;;;;;6.70;3.55;;;;;;;8.43;83.42;94084.19;4985486;28;20030;-78
2023/05/10 02:10:29;;;;;;;7.10;4.00;;;;;;;8.41;83.59;94079.16;4985502;28;20027;-78
2023/05/10 02:12:58;;;;;;;4.68;3.40;;;;;;;8.42;83.37;94082.59;4985480;28;20335;-78
2023/05/10 02:15:25;;;;;;;5.10;3.38;;;;;;;8.34;83.77;94080.59;4985547;28;20097;-79
2023/05/10 02:17:52;;;;;;;5.15;2.78;;;;;;;8.33;83.49;94079.03;4985249;28;20094;-78
2023/05/10 02:20:19;;;;;;;6.25;3.15;;;;;;;8.27;82.56;94070.38;4985398;28;20018;-76
2023/05/10 02:22:48;;;;;;;4.70;2.72;;;;;;;8.21;82.28;94069.66;4985310;28;20029;-79
2023/05/10 02:25:15;;;;;;;3.80;2.63;;;;;;;8.08;82.20;94069.63;4985240;28;20030;-78
2023/05/10 02:27:42;;;;;;;5.15;3.80;;;;;;;8.04;81.92;94074.75;4985281;28;20037;-78
2023/05/10 02:30:08;;;;;;;6.75;3.28;;;;;;;7.98;80.80;94073.25;4984904;28;20038;-79
2023/05/10 02:32:35;;;;;;;5.03;3.42;;;;;;;7.91;79.14;94076.28;4983872;28;20044;-78
2023/05/10 02:35:02;;;;;;;11.02;3.10;;;;;;;7.83;78.00;94071.63;4985122;28;20077;-78
2023/05/10 02:37:28;;;;;;;7.05;3.40;;;;;;;7.73;77.97;94069.91;4985104;28;20030;-78
2023/05/10 02:39:55;;;;;;;7.93;4.03;;;;;;;7.63;77.89;94078.84;4983943;28;20023;-79
2023/05/10 02:42:25;;;;;;;5.55;3.65;;;;;;;7.54;78.86;94080.56;4983604;28;20217;-79
2023/05/10 02:44:52;;;;;;;8.02;5.18;;;;;;;7.49;79.28;94083.31;4984990;28;20134;-78
2023/05/10 02:47:18;;;;;;;9.50;3.85;;;;;;;7.47;79.46;94074.03;4984728;28;20038;-78
2023/05/10 02:49:44;;;;;;;6.00;4.03;;;;;;;7.43;79.60;94071.97;4984665;28;20046;-78
2023/05/10 02:52:10;;;;;;;6.50;3.67;;;;;;;7.39;79.80;94067.53;4984754;28;20031;-78
2023/05/10 02:54:43;;;;;;;11.13;4.22;;;;;;;7.35;79.66;94064.66;4949493;29;20053;-78
2023/05/10 02:57:14;;;;;;;5.45;3.42;;;;;;;7.35;80.36;94064.66;4965289;29;20023;-78
2023/05/10 02:59:40;;;;;;;5.97;3.92;;;;;;;7.36;79.62;94066.22;4965373;29;20023;-77
2023/05/10 03:02:06;;;;;;;5.70;3.70;;;;;;;7.31;79.30;94055.72;4965246;29;20221;-77
2023/05/10 03:04:31;;;;;;;9.35;4.07;;;;;;;7.28;79.63;94060.78;4964993;29;20023;-77
2023/05/10 03:06:57;;;;;;;5.68;3.42;;;;;;;7.23;79.58;94064.31;4965532;29;20050;-77
2023/05/10 03:09:22;;;;;;;6.80;4.03;;;;;;;7.26;79.59;94053.13;4964937;29;20397;-77
2023/05/10 03:12:00;;;;;;;5.03;3.50;;;;;;;7.27;79.53;94064.53;4965039;29;20322;-77
2023/05/10 03:14:38;;;;;;;5.13;3.08;;;;;;;7.29;80.05;94060.50;4965027;29;20027;-77
2023/05/10 03:17:25;;;;;;;11.70;3.35;;;;;;;7.26;80.11;94058.41;4964802;29;20027;-76
2023/05/10 03:19:58;;;;;;;6.10;3.83;;;;;;;7.26;80.64;94062.94;4964826;29;20206;-76
2023/05/10 03:22:28;;;;;;;6.97;3.90;;;;;;;7.27;79.70;94070.63;4965100;29;20023;-76
2023/05/10 03:24:57;;;;;;;6.53;3.53;;;;;;;7.23;79.99;94064.31;4964640;28;20055;-76
2023/05/10 03:27:25;;;;;;;6.32;3.60;;;;;;;7.23;79.86;94065.09;4964963;29;20220;-77
2023/05/10 03:29:51;;;;;;;9.80;4.05;;;;;;;7.26;80.14;94068.25;4947563;29;20030;-77
2023/05/10 03:32:17;;;;;;;5.85;3.85;;;;;;;7.30;79.93;94075.31;4964505;29;20122;-77
2023/05/10 03:34:45;;;;;;;5.57;3.83;;;;;;;7.26;79.61;94074.31;4964727;29;20039;-77
2023/05/10 03:37:10;;;;;;;6.32;4.05;;;;;;;7.28;79.90;94084.66;4964730;29;20066;-77
2023/05/10 03:39:36;;;;;;;6.28;3.78;;;;;;;7.25;80.02;94087.88;4964752;29;20090;-77
2023/05/10 03:42:02;;;;;;;9.75;4.70;;;;;;;7.23;80.07;94086.28;4964584;29;20446;-77
2023/05/10 03:44:27;;;;;;;9.02;4.40;;;;;;;7.25;79.74;94086.03;4964566;29;20035;-76
2023/05/10 03:46:52;;;;;;;9.60;4.72;;;;;;;7.19;79.58;94082.63;4964496;29;20046;-76
2023/05/10 03:49:18;;;;;;;7.85;4.38;;;;;;;7.21;79.91;94075.19;4964549;29;20035;-76
2023/05/10 03:51:44;;;;;;;5.70;4.00;;;;;;;7.21;79.66;94088.44;4964633;29;20160;-77
2023/05/10 03:54:09;;;;;;;12.00;4.38;;;;;;;7.22;79.34;94089.22;4993249;28;20050;-78
2023/05/10 03:56:34;;;;;;;6.57;4.28;;;;;;;7.23;78.96;94101.44;5003161;28;20026;-78
2023/05/10 03:59:00;;;;;;;7.57;4.82;;;;;;;7.26;79.28;94106.13;5003365;28;20033;-77
2023/05/10 04:01:26;;;;;;;7.68;4.07;;;;;;;7.31;79.31;94100.78;5003566;28;20220;-78
2023/05/10 04:03:51;;;;;;;6.78;4.47;;;;;;;7.25;78.34;94104.56;5003229;28;20093;-77
2023/05/10 04:06:17;;;;;;;6.20;3.70;;;;;;;7.26;78.16;94103.50;5003218;28;20018;-77
2023/05/10 04:08:42;;;;;;;6.78;4.18;;;;;;;7.29;77.91;94105.59;5002853;28;20022;-77
2023/05/10 04:11:09;;;;;;;18.30;7.18;;;;;;;7.29;77.76;94100.28;4985860;28;20026;-78
2023/05/10 04:13:34;;;;;;;6.55;4.28;;;;;;;7.31;77.87;94114.03;5003097;28;20023;-79
2023/05/10 04:16:00;;;;;;;6.32;3.95;;;;;;;7.30;77.79;94106.38;5003035;28;20371;-81
2023/05/10 04:18:25;;;;;;;9.38;4.47;;;;;;;7.29;77.84;94110.88;5003243;28;20324;-79
2023/05/10 04:20:51;;;;;;;7.40;4.85;;;;;;;7.29;78.13;94120.72;5003281;28;20023;-80
2023/05/10 04:23:16;;;;;;;9.18;4.70;;;;;;;7.23;77.74;94112.03;4985853;28;20046;-80
2023/05/10 04:25:42;;;;;;;16.83;5.03;;;;;;;7.27;77.47;94117.56;5003283;28;20022;-79
2023/05/10 04:28:08;;;;;;;8.07;4.50;;;;;;;7.25;77.60;94117.84;5002847;28;20206;-79
2023/05/10 04:30:33;;;;;;;8.75;4.78;;;;;;;7.20;77.75;94107.28;5002906;28;20093;-79
2023/05/10 04:32:59;;;;;;;9.88;4.75;;;;;;;7.18;78.22;94117.38;5003037;28;20041;-78
2023/05/10 04:35:25;;;;;;;5.82;4.45;;;;;;;7.22;78.09;94111.25;5003072;28;20026;-78
2023/05/10 04:37:51;;;;;;;10.85;4.47;;;;;;;7.19;78.40;94105.72;5005987;28;20101;-77
2023/05/10 04:40:17;;;;;;;7.95;4.70;;;;;;;7.19;77.96;94125.06;5006942;28;20018;-78
2023/05/10 04:42:43;;;;;;;9.00;5.15;;;;;;;7.27;78.10;94120.22;5006537;28;20234;-77
2023/05/10 04:45:09;;;;;;;9.80;5.22;;;;;;;7.35;78.46;94117.69;5006735;28;20056;-78
2023/05/10 04:47:36;;;;;;;8.15;4.60;;;;;;;7.39;78.05;94116.06;5006680;28;20033;-78
2023/05/10 04:50:06;;;;;;;6.60;4.05;;;;;;;7.44;77.43;94110.66;5006762;28;20034;-78
2023/05/10 04:52:31;;;;;;;9.98;5.47;;;;;;;7.48;77.91;94110.09;5006436;28;20026;-78
2023/05/10 04:54:57;;;;;;;7.35;4.55;;;;;;;7.49;77.94;94115.13;5006648;28;20201;-78
2023/05/10 04:57:22;;;;;;;11.57;4.45;;;;;;;7.55;77.81;94118.47;5006300;28;20026;-78
2023/05/10 04:59:48;;;;;;;8.68;4.68;;;;;;;7.66;77.57;94117.25;5006016;28;20260;-78
2023/05/10 05:02:13;;;;;;;7.57;4.45;;;;;;;7.76;77.74;94119.75;5006411;28;20029;-78
2023/05/10 05:04:39;;;;;;;11.02;4.57;;;;;;;7.84;77.71;94120.97;5006321;28;20331;-78
2023/05/10 05:07:05;;;;;;;8.00;4.55;;;;;;;7.96;76.41;94117.88;5006207;28;20045;-78
2023/05/10 05:09:31;;;;;;;5.93;4.22;;;;;;;7.97;75.64;94119.44;5005943;28;20093;-78
2023/05/10 05:11:57;;;;;;;7.50;4.43;;;;;;;7.99;75.98;94122.59;5005924;28;20042;-78
2023/05/10 05:14:24;;;;;;;6.55;4.30;;;;;;;8.05;75.66;94137.38;5006462;28;20292;-78
2023/05/10 05:16:53;;;;;;;7.18;4.65;;;;;;;8.16;75.79;94125.53;5006334;28;20236;-78
2023/05/10 05:19:19;;;;;;;6.95;4.53;;;;;;;8.23;75.27;94141.84;5006185;28;20033;-78
2023/05/10 05:21:44;;;;;;;9.57;5.63;;;;;;;8.33;75.58;94127.63;5006278;28;20026;-78
2023/05/10 05:24:11;;;;;;;8.52;4.82;;;;;;;8.37;75.18;94138.47;5006133;28;20371;-77
2023/05/10 05:26:36;;;;;;;7.95;4.97;;;;;;;8.43;74.87;94135.44;5005856;28;20064;-78
2023/05/10 05:29:05;;;;;;;9.23;5.43;;;;;;;8.44;74.46;94142.31;5005766;28;20268;-80
2023/05/10 05:31:33;;;;;;;10.25;5.32;;;;;;;8.52;75.01;94140.88;5005974;28;20308;-78
2023/05/10 05:33:59;;;;;;;9.52;5.03;;;;;;;8.57;74.30;94147.97;5005806;28;20030;-79
2023/05/10 05:36:24;;;;;;;9.20;5.75;;;;;;;8.56;74.50;94147.16;5005820;28;20090;-79
2023/05/10 05:38:50;;;;;;;11.93;5.45;;;;;;;8.62;74.17;94145.22;5005838;28;20029;-79
2023/05/10 05:41:15;;;;;;;11.35;5.20;;;;;;;8.61;74.43;94148.97;5005603;28;20092;-79
2023/05/10 05:43:41;;;;;;;9.82;6.20;;;;;;;8.60;74.87;94147.38;5005673;28;20026;-79
2023/05/10 05:46:06;;;;;;;9.77;6.63;;;;;;;8.58;75.39;94152.97;5005493;28;20030;-79
2023/05/10 05:48:32;;;;;;;10.57;5.97;;;;;;;8.63;75.21;94158.22;5005091;28;20216;-79
2023/05/10 05:51:00;;;;;;;13.68;6.38;;;;;;;8.67;75.09;94157.63;5005602;28;20065;-79
2023/05/10 05:53:26;;;;;;;10.45;6.78;;;;;;;8.73;76.06;94165.22;5005294;28;20049;-79
2023/05/10 05:55:58;;;;;;;9.98;6.72;;;;;;;8.68;75.77;94165.31;5005293;28;20336;-79
2023/05/10 05:58:26;;;;;;;12.23;6.45;;;;;;;8.71;75.38;94174.56;4988011;28;20044;-78
2023/05/10 06:00:52;;;;;;;12.38;6.07;;;;;;;8.70;74.93;94167.69;5005160;28;20097;-79
2023/05/10 06:03:18;;;;;;;14.63;7.18;;;;;;;8.74;75.17;94163.34;5005201;28;20504;-78
2023/05/10 06:05:44;;;;;;;13.90;7.90;;;;;;;8.79;75.41;94164.06;4987686;28;20049;-79
2023/05/10 06:08:09;;;;;;;13.48;7.82;;;;;;;8.77;75.47;94168.88;5005200;28;20046;-86
2023/05/10 06:10:35;;;;;;;12.27;8.30;;;;;;;8.80;74.43;94160.28;5005155;28;20022;-88
2023/05/10 06:13:01;;;;;;;12.73;7.65;;;;;;;8.93;79.03;94158.72;5004863;28;20202;-81
2023/05/10 06:15:27;;;;;;;17.02;8.02;;;;;;;9.20;82.23;94167.81;5004959;28;20248;-81
2023/05/10 06:17:52;;;;;;;13.95;7.60;;;;;;;9.56;82.03;94167.06;5004736;28;20257;-81
2023/05/10 06:20:18;;;;;;;15.00;8.32;;;;;;;9.89;79.10;94166.88;5004421;28;20102;-79
2023/05/10 06:22:43;;;;;;;16.50;7.78;;;;;;;10.10;75.47;94168.00;5004555;28;20026;-79
2023/05/10 06:25:09;;;;;;;11.60;6.97;;;;;;;10.31;73.53;94168.34;5004493;28;20316;-78
2023/05/10 06:27:35;;;;;;;13.52;8.13;;;;;;;10.48;72.61;94167.66;5004332;28;20033;-78
2023/05/10 06:30:01;;;;;;;14.05;7.38;;;;;;;10.70;71.83;94172.16;5004192;28;20038;-79
2023/05/10 06:32:29;;;;;;;11.73;6.65;;;;;;;10.86;69.86;94172.56;5004152;28;20022;-79
2023/05/10 06:34:54;;;;;;;10.73;6.03;;;;;;;10.91;68.81;94164.44;5004491;28;20028;-79
2023/05/10 06:37:22;;;;;;;18.40;7.38;;;;;;;11.08;67.37;94170.94;4986787;28;20313;-81
2023/05/10 06:39:48;;;;;;;12.82;7.63;;;;;;;11.07;66.71;94182.69;5003887;28;20253;-79
2023/05/10 06:42:13;;;;;;;18.00;7.38;;;;;;;10.97;66.00;94175.75;5004430;28;20068;-80
2023/05/10 06:44:39;;;;;;;14.93;7.28;;;;;;;10.97;66.80;94179.22;5004004;28;20201;-80
2023/05/10 06:47:04;;;;;;;13.98;7.72;;;;;;;10.94;65.50;94171.81;5004011;28;20090;-80
2023/05/10 06:49:30;;;;;;;13.75;6.88;;;;;;;10.79;66.22;94181.00;5004109;28;20032;-77
2023/05/10 06:51:56;;;;;;;10.73;7.30;;;;;;;10.67;67.03;94166.69;5004561;28;20022;-79
2023/05/10 06:54:22;;;;;;;15.00;8.15;;;;;;;10.57;66.72;94173.06;5003668;28;20094;-78
2023/05/10 06:56:48;;;;;;;14.02;7.90;;;;;;;10.50;67.96;94181.50;5004146;28;20022;-79
2023/05/10 06:59:15;;;;;;;13.07;7.70;;;;;;;10.44;68.23;94177.34;5003034;28;20340;-80
2023/05/10 07:01:40;;;;;;;13.00;7.68;;;;;;;10.41;67.88;94184.06;5003655;28;20026;-80
2023/05/10 07:04:07;;;;;;;18.70;8.50;;;;;;;10.36;67.69;94188.72;5003983;28;20025;-85
2023/05/10 07:06:33;;;;;;;17.50;8.90;;;;;;;10.31;67.86;94188.88;5003982;28;20022;-79
2023/05/10 07:08:59;;;;;;;11.90;7.90;;;;;;;10.30;67.30;94179.28;5003623;28;20042;-79
2023/05/10 07:11:24;;;;;;;10.60;7.55;;;;;;;10.27;68.26;94191.31;5003705;28;20025;-79
2023/05/10 07:13:50;;;;;;;14.52;8.52;;;;;;;10.28;68.32;94192.09;5003667;28;20026;-77
2023/05/10 07:16:15;;;;;;;17.75;7.63;;;;;;;10.20;68.50;94183.75;5002770;28;20042;-78
2023/05/10 07:18:41;;;;;;;14.65;8.48;;;;;;;10.16;67.83;94190.78;5003488;28;20018;-78
2023/05/10 07:21:06;;;;;;;11.27;6.93;;;;;;;10.12;68.25;94187.13;5003662;28;20056;-79
2023/05/10 07:23:32;;;;;;;11.35;7.20;;;;;;;10.07;67.80;94197.88;5003598;28;20022;-79
2023/05/10 07:25:57;;;;;;;13.23;7.57;;;;;;;10.07;68.20;94187.25;5003577;28;20161;-79
2023/05/10 07:28:26;;;;;;;19.52;9.18;;;;;;;10.10;68.96;94196.53;5003152;28;20030;-81
2023/05/10 07:30:51;;;;;;;17.67;7.80;;;;;;;10.09;68.22;94193.06;4985803;28;20037;-78
2023/05/10 07:33:17;;;;;;;18.95;8.75;;;;;;;9.99;67.61;94199.41;5003803;28;20221;-84
2023/05/10 07:35:43;;;;;;;18.02;9.35;;;;;;;9.93;68.59;94199.81;5003873;28;20029;-83
2023/05/10 07:38:10;;;;;;;21.88;9.10;;;;;;;9.98;68.70;94194.38;5003800;28;20022;-83
2023/05/10 07:40:36;;;;;;;16.33;8.35;;;;;;;10.06;68.60;94206.19;5003757;28;20025;-82
2023/05/10 07:43:02;;;;;;;14.25;7.82;;;;;;;10.01;67.86;94213.22;4986139;28;20216;-83
2023/05/10 07:45:27;;;;;;;17.75;8.45;;;;;;;9.98;68.09;94199.72;5003518;28;20105;-85
2023/05/10 07:47:53;;;;;;;14.45;8.00;;;;;;;10.01;68.11;94205.22;4986296;28;20022;-85
2023/05/10 07:50:19;;;;;;;14.52;8.40;;;;;;;9.99;68.26;94201.28;5003505;28;20038;-83
2023/05/10 07:52:44;;;;;;;23.48;8.48;;;;;;;9.97;67.95;94198.13;5003418;28;20038;-82
2023/05/10 07:55:10;;;;;;;22.80;9.15;;;;;;;10.05;68.06;94205.41;5003448;28;20049;-82
2023/05/10 07:57:36;;;;;;;18.80;8.00;;;;;;;10.14;67.86;94198.28;5003697;28;20032;-82
2023/05/10 08:00:02;;;;;;;13.80;8.02;;;;;;;10.16;67.01;94201.44;5003382;28;20074;-81
2023/05/10 08:02:30;;;;;;;24.80;7.85;;;;;;;10.11;66.97;94208.75;5003348;28;20028;-82
2023/05/10 08:04:56;;;;;;;17.63;10.32;;;;;;;10.11;66.90;94212.19;5003374;28;20092;-85
2023/05/10 08:07:24;;;;;;;15.40;8.23;;;;;;;10.20;66.85;94214.94;5003174;28;20046;-82
2023/05/10 08:09:49;;;;;;;15.30;8.70;;;;;;;10.25;66.99;94212.91;5003020;28;20038;-80
2023/05/10 08:12:15;;;;;;;17.98;8.27;;;;;;;10.32;66.69;94215.22;5006775;28;20034;-82
2023/05/10 08:14:41;;;;;;;17.73;8.38;;;;;;;10.34;66.20;94210.38;5007225;28;20045;-81
2023/05/10 08:17:06;;;;;;;19.90;7.40;;;;;;;10.33;65.87;94218.66;5007000;28;20022;-80
2023/05/10 08:19:34;;;;;;;19.38;8.20;;;;;;;10.37;65.63;94217.75;5007286;28;20019;-81
2023/05/10 08:22:00;;;;;;;20.55;8.70;;;;;;;10.39;65.87;94209.47;5007185;28;20030;-81
2023/05/10 08:24:25;;;;;;;26.10;8.88;;;;;;;10.46;65.49;94214.34;4989633;28;20027;-83
2023/05/10 08:26:51;;;;;;;15.32;8.20;;;;;;;10.62;65.85;94215.56;5007071;28;20033;-84
2023/05/10 08:29:16;;;;;;;22.40;7.45;;;;;;;10.75;65.45;94221.94;5007049;28;20216;-84
2023/05/10 08:31:42;;;;;;;12.48;6.80;;;;;;;10.90;64.73;94207.41;5007217;28;20028;-82
2023/05/10 08:34:07;;;;;;;14.80;8.07;;;;;;;11.04;64.86;94216.13;5006891;28;20022;-82
2023/05/10 08:36:33;;;;;;;18.98;6.90;;;;;;;11.11;64.60;94215.66;4989341;28;20026;-82
2023/05/10 08:38:58;;;;;;;11.00;7.70;;;;;;;11.14;64.71;94212.41;5007092;28;20398;-81
2023/05/10 08:41:25;;;;;;;12.10;7.85;;;;;;;11.14;64.87;94217.75;5006777;28;20026;-81
2023/05/10 08:44:14;;;;;;;12.23;8.60;;;;;;;11.12;65.30;94211.91;5006732;28;20032;-82
2023/05/10 08:46:45;;;;;;;13.52;7.90;;;;;;;11.14;66.11;94205.19;4989408;28;20032;-82
2023/05/10 08:49:18;;;;;;;11.50;7.28;;;;;;;11.13;65.67;94208.91;5006409;28;20034;-82
2023/05/10 08:51:51;;;;;;;13.65;8.63;;;;;;;11.16;66.36;94215.53;5006546;28;20038;-81
2023/05/10 08:54:17;;;;;;;15.93;9.02;;;;;;;11.12;66.34;94211.91;5006509;28;20042;-81
2023/05/10 08:56:42;;;;;;;13.65;8.43;;;;;;;11.08;67.01;94219.75;5006492;28;20018;-80
2023/05/10 08:59:16;;;;;;;12.45;7.53;;;;;;;11.07;67.23;94215.50;5006230;28;20014;-80
2023/05/10 09:01:49;;;;;;;11.85;7.80;;;;;;;11.09;67.33;94212.53;4989134;28;20247;-83
2023/05/10 09:04:14;;;;;;;;;;;;;;;11.09;67.69;94215.97;4989603;28;20026;-80
2023/05/10 09:06:40;;;;;;;13.18;7.20;;;;;;;11.11;67.94;94213.78;4989246;28;19905;-79
2023/05/10 09:09:06;;;;;;;13.45;8.23;;;;;;;11.10;67.67;94217.56;5006452;28;20248;-80
2023/05/10 09:11:32;;;;;;;12.57;8.13;;;;;;;11.12;67.84;94217.25;4988987;28;20025;-81
2023/05/10 09:14:03;;;;;;;13.98;7.43;;;;;;;11.16;67.38;94221.66;5006357;28;20018;-81
2023/05/10 09:16:32;;;;;;;15.45;7.28;;;;;;;11.15;67.41;94224.63;5006221;28;20033;-82
2023/05/10 09:19:06;;;;;;;14.65;8.02;;;;;;;11.04;67.98;94214.22;5006295;28;20325;-82
2023/05/10 09:21:38;;;;;;;9.65;7.35;;;;;;;11.11;67.94;94215.66;5005869;28;20018;-82
2023/05/10 09:24:08;;;;;;;17.55;8.90;;;;;;;11.17;67.02;94211.78;5005634;28;20018;-82
2023/05/10 09:26:51;;;;;;;13.05;8.77;;;;;;;11.26;67.19;94209.94;5005985;28;20022;-81
2023/05/10 09:29:17;;;;;;;12.98;7.80;;;;;;;11.24;66.91;94214.78;4988397;28;20054;-83
2023/05/10 09:31:51;;;;;;;11.43;8.27;;;;;;;11.23;67.18;94199.88;5005883;28;20343;-80
2023/05/10 09:34:32;;;;;;;16.98;8.75;;;;;;;11.32;67.00;94208.72;4988210;28;20026;-81
2023/05/10 09:37:04;;;;;;;15.75;8.95;;;;;;;11.38;66.61;94202.13;5006036;28;20026;-80
2023/05/10 09:39:37;;;;;;;23.30;8.55;;;;;;;11.33;66.38;94204.94;5005688;28;20022;-79
2023/05/10 09:42:05;;;;;;;15.30;8.13;;;;;;;11.36;66.05;94208.88;5005564;28;20030;-80
2023/05/10 09:44:32;;;;;;;11.20;7.55;;;;;;;11.34;66.18;94206.50;5005600;28;20030;-80
2023/05/10 09:47:02;;;;;;;11.60;6.70;;;;;;;11.28;64.93;94215.75;5005812;28;20026;-84
2023/05/10 09:49:28;;;;;;;11.75;8.07;;;;;;;11.23;65.75;94203.34;4988003;28;20030;-80
2023/05/10 09:52:05;;;;;;;9.63;6.45;;;;;;;11.15;65.61;94203.28;5005728;28;20082;-80
2023/05/10 09:54:31;;;;;;;15.10;7.63;;;;;;;11.13;65.79;94205.47;5005374;28;20046;-80
2023/05/10 09:56:57;;;;;;;13.52;7.28;;;;;;;11.04;66.21;94192.88;5005444;28;20137;-79
2023/05/10 09:59:26;;;;;;;13.23;7.65;;;;;;;11.08;65.63;94195.72;4987912;28;20317;-81
2023/05/10 10:01:52;;;;;;;9.68;7.03;;;;;;;11.26;65.52;94193.94;5005243;28;20022;-83
2023/05/10 10:04:21;;;;;;;18.92;8.95;;;;;;;11.39;65.99;94202.91;5005352;28;20026;-87
2023/05/10 10:06:47;;;;;;;14.93;8.05;;;;;;;11.49;64.55;94186.63;5005623;28;20256;-87
2023/05/10 10:09:13;;;;;;;11.27;6.57;;;;;;;11.61;64.78;94178.00;5005606;28;20227;-88
2023/05/10 10:11:41;;;;;;;10.73;7.45;;;;;;;11.80;64.37;94180.38;5005316;28;20019;-87
2023/05/10 10:14:06;;;;;;;11.20;7.43;;;;;;;11.84;63.87;94179.47;5005294;28;20049;-87
2023/05/10 10:16:32;;;;;;;11.55;8.43;;;;;;;11.94;63.15;94172.25;5005344;28;20312;-87
2023/05/10 10:18:58;;;;;;;14.27;7.80;;;;;;;11.96;62.45;94180.75;5005551;28;20042;-88
2023/05/10 10:21:24;;;;;;;15.40;8.35;;;;;;;12.04;62.29;94174.63;5005075;28;20097;-87
2023/05/10 10:23:51;;;;;;;10.02;7.28;;;;;;;12.03;62.64;94181.88;5005205;28;20232;-88
2023/05/10 10:26:18;;;;;;;14.57;8.45;;;;;;;12.12;62.18;94181.84;5005147;28;20022;-85
2023/05/10 10:28:44;;;;;;;13.65;7.05;;;;;;;12.18;61.79;94185.16;5004907;28;20018;-84
2023/05/10 10:31:32;;;;;;;12.43;8.02;;;;;;;12.17;62.10;94172.88;5004789;28;20069;-84
2023/05/10 10:34:06;;;;;;;11.68;6.93;;;;;;;12.15;60.89;94181.25;5004078;28;20022;-83
2023/05/10 10:36:53;;;;;;;28.42;9.13;;;;;;;12.15;61.29;94193.78;5004710;28;20034;-83
2023/05/10 10:39:24;;;;;;;12.48;7.65;;;;;;;12.15;61.19;94181.25;5004053;28;20081;-85
2023/05/10 10:41:55;;;;;;;18.25;11.80;;;;;;;12.09;61.28;94185.16;4987208;28;20340;-83
2023/05/10 10:44:25;;;;;;;10.68;7.72;;;;;;;12.10;60.70;94184.06;5004777;28;20321;-86
2023/05/10 10:47:05;;;;;;;13.77;6.90;;;;;;;12.09;61.40;94187.03;5004832;28;20030;-85
2023/05/10 10:49:51;;;;;;;9.43;6.60;;;;;;;12.08;61.47;94186.25;4987297;28;20340;-86
2023/05/10 10:52:23;;;;;;;12.75;6.30;;;;;;;12.09;61.73;94182.50;4971156;28;20030;-83
2023/05/10 10:55:06;;;;;;;15.15;7.35;;;;;;;12.10;61.37;94183.28;5004473;28;20038;-84
2023/05/10 10:57:43;;;;;;;13.85;6.50;;;;;;;12.19;61.53;94184.84;5004398;28;20022;-83
2023/05/10 11:00:21;;;;;;;15.80;6.93;;;;;;;12.20;61.48;94189.09;4986924;28;20022;-87
2023/05/10 11:02:58;;;;;;;26.88;12.05;;;;;;;12.20;61.01;94186.41;4987358;28;20030;-86
2023/05/10 11:05:24;;;;;;;16.98;6.45;;;;;;;12.20;61.58;94188.31;5004293;28;20033;-87
2023/05/10 11:07:57;;;;;;;16.98;6.97;;;;;;;12.18;61.23;94188.63;4987350;28;20052;-87
2023/05/10 11:10:24;;;;;;;11.02;6.53;;;;;;;12.20;61.53;94188.31;5004848;28;20096;-88
2023/05/10 11:13:06;;;;;;;13.95;7.18;;;;;;;12.15;61.72;94173.22;5004422;28;20038;-85
2023/05/10 11:15:33;;;;;;;10.75;5.95;;;;;;;12.20;61.25;94178.41;5004252;28;20077;-87
2023/05/10 11:18:00;;;;;;;14.13;6.43;;;;;;;12.23;60.97;94187.66;5004282;28;20209;-87
2023/05/10 11:20:38;;;;;;;18.13;6.68;;;;;;;12.21;60.73;94179.97;4986643;28;20386;-84
2023/05/10 11:23:15;;;;;;;9.13;6.65;;;;;;;12.24;62.61;94179.34;5003958;28;20061;-85
2023/05/10 11:25:45;;;;;;;11.13;6.20;;;;;;;12.30;60.72;94174.63;5004309;28;20046;-86
2023/05/10 11:28:12;;;;;;;9.15;5.90;;;;;;;12.40;60.18;94186.88;5004450;28;20030;-88
2023/05/10 11:30:39;;;;;;;15.43;6.20;;;;;;;12.43;60.34;94181.66;4986715;28;20030;-84
2023/05/10 11:33:06;;;;;;;10.40;6.00;;;;;;;12.48;60.43;94183.41;5004074;28;20030;-87
2023/05/10 11:35:38;;;;;;;18.38;5.68;;;;;;;12.43;59.65;94180.91;5004070;28;20029;-85
2023/05/10 11:38:09;;;;;;;13.07;5.93;;;;;;;12.38;59.80;94189.09;5003871;28;20316;-84